Chattanooga, TN

6:14 PM EDT on October 01, 2016 (GMT -0400)
TN River Valley Gorge | | Change Station

Elev 640 ft 35.12 °N, 85.39 °W | Updated 77 days ago

Mostly Cloudy
Mostly Cloudy
64 °F
Feels Like 64 °F
N
1
Wind Variable Wind from NW
Gusts mph

Today
High -- | Low -- °F
--% Chance of Precip.
Yesterday
High -- | Low -- °F
Precip. -- in
Pressure 30.02 in
Visibility 10.0 miles
Clouds Scattered Clouds 6000 ft
Mostly Cloudy 7500 ft
Mostly Cloudy 15000 ft
Dew Point 55 °F
Humidity 73%
Rainfall in
Snow Depth Not available.
7:36 AM 7:24 PM
New Moon, 1% visible
METAR KCHA 012153Z 22004KT 10SM SCT060 BKN075 BKN150 25/10 A3003 RMK AO2 SLP164 T02500100
Pressure 30.02 in
Visibility 10.0 miles
Clouds Scattered Clouds 6000 ft
Mostly Cloudy 7500 ft
Mostly Cloudy 15000 ft
Dew Point 55 °F
Humidity 73%
Rainfall in
Snow Depth Not available.
7:36 AM 7:24 PM
New Moon, 1% visible
METAR KCHA 012153Z 22004KT 10SM SCT060 BKN075 BKN150 25/10 A3003 RMK AO2 SLP164 T02500100

10-Day Weather Forecast

Almanac

Astronomy

Oct. 01, 2016 Rise Set
Actual Time
Civil Twilight
Nautical Twilight
Astronomical Twilight
Moon
Length of Visible Light
Length of Day
Tomorrow will be .
, % of the Moon is Illuminated

Today's Extremes

State Highs State Lows

Community

WunderPhotos

Upload Photos

1,943,033 photos uploaded!

WunderBlog® & News

Nearby

Air Quality

  Air Quality AQ Index Pollutant
Not available.

Snow Depth

Station Depth Elevation

Earthquake Activity

City Distance Mag. Time & Date
Minimum magnitude displayed is 2.5.

Coastal Water Temperatures

Place Temperature

Stations

Nearby Weather Stations

Station Location Temp. Windchill Dew Point Humidity Wind Precip. Elev Updated Type
                   

Watches & Warnings

There are currently no watches in effect.